Terminal Aerodrome Forecast
Issued by NWS

Home | Current Version | Previous Version | Text Only | Print | Product List | Glossary On
Versions: 1 2 3 4 5 6 7 8 9 10 11 12 13 14 15 16 17 18
459
FTUS46 KLOX 210607 CCA
TAFVNY
TAF COR
KVNY 210607Z 2106/2206 13005KT P6SM SCT011
     FM210700 14005KT P6SM BKN011
     FM210800 13004KT 6SM BR SCT008 OVC016
     FM211530 14004KT P6SM BKN021
     FM211700 15009KT P6SM SKC
     FM220400 13004KT P6SM SKC=

USA.gov is the U.S. government's official web portal to all federal, state and local government web resources and services.